sensor_id;sensor_type;location;lat;lon;timestamp;temperature;humidity
52543;DHT22;38449;52.696;6.186;2022-07-23T00:01:23;16.20;99.90
52543;DHT22;38449;52.696;6.186;2022-07-23T00:03:49;16.20;99.90
52543;DHT22;38449;52.696;6.186;2022-07-23T00:06:15;16.10;99.90
52543;DHT22;38449;52.696;6.186;2022-07-23T00:08:41;16.10;99.90
52543;DHT22;38449;52.696;6.186;2022-07-23T00:11:07;16.10;99.90
52543;DHT22;38449;52.696;6.186;2022-07-23T00:13:32;16.00;99.90
52543;DHT22;38449;52.696;6.186;2022-07-23T00:15:58;16.00;99.90
52543;DHT22;38449;52.696;6.186;2022-07-23T00:18:24;15.90;99.90
52543;DHT22;38449;52.696;6.186;2022-07-23T00:20:49;15.90;99.90
52543;DHT22;38449;52.696;6.186;2022-07-23T00:23:16;15.90;99.90
52543;DHT22;38449;52.696;6.186;2022-07-23T00:25:42;15.90;99.90
52543;DHT22;38449;52.696;6.186;2022-07-23T00:28:08;15.90;99.90
52543;DHT22;38449;52.696;6.186;2022-07-23T00:30:34;15.80;99.90
52543;DHT22;38449;52.696;6.186;2022-07-23T00:33:01;15.80;99.90
52543;DHT22;38449;52.696;6.186;2022-07-23T00:35:30;15.80;99.90
52543;DHT22;38449;52.696;6.186;2022-07-23T00:37:57;15.80;99.90
52543;DHT22;38449;52.696;6.186;2022-07-23T00:40:24;15.80;99.90
52543;DHT22;38449;52.696;6.186;2022-07-23T00:42:50;15.80;99.90
52543;DHT22;38449;52.696;6.186;2022-07-23T00:45:16;15.70;99.90
52543;DHT22;38449;52.696;6.186;2022-07-23T00:47:42;15.70;99.90
52543;DHT22;38449;52.696;6.186;2022-07-23T00:50:08;15.70;99.90
52543;DHT22;38449;52.696;6.186;2022-07-23T00:52:35;15.70;99.90
52543;DHT22;38449;52.696;6.186;2022-07-23T00:55:03;15.70;99.90
52543;DHT22;38449;52.696;6.186;2022-07-23T00:57:29;15.60;99.90
52543;DHT22;38449;52.696;6.186;2022-07-23T00:59:55;15.60;99.90
52543;DHT22;38449;52.696;6.186;2022-07-23T01:02:21;15.60;99.90
52543;DHT22;38449;52.696;6.186;2022-07-23T01:04:47;15.60;99.90
52543;DHT22;38449;52.696;6.186;2022-07-23T01:07:13;15.50;99.90
52543;DHT22;38449;52.696;6.186;2022-07-23T01:09:39;15.50;99.90
52543;DHT22;38449;52.696;6.186;2022-07-23T01:12:06;15.50;99.90
52543;DHT22;38449;52.696;6.186;2022-07-23T01:14:32;15.50;99.90
52543;DHT22;38449;52.696;6.186;2022-07-23T01:16:57;15.50;99.90
52543;DHT22;38449;52.696;6.186;2022-07-23T01:19:23;15.40;99.90
52543;DHT22;38449;52.696;6.186;2022-07-23T01:21:50;15.40;99.90
52543;DHT22;38449;52.696;6.186;2022-07-23T01:24:17;15.40;99.90
52543;DHT22;38449;52.696;6.186;2022-07-23T01:26:47;15.40;99.90
52543;DHT22;38449;52.696;6.186;2022-07-23T01:29:14;15.40;99.90
52543;DHT22;38449;52.696;6.186;2022-07-23T01:31:40;15.40;99.90
52543;DHT22;38449;52.696;6.186;2022-07-23T01:34:07;15.40;99.90
52543;DHT22;38449;52.696;6.186;2022-07-23T01:36:36;15.30;99.90
52543;DHT22;38449;52.696;6.186;2022-07-23T01:39:04;15.30;99.90
52543;DHT22;38449;52.696;6.186;2022-07-23T01:41:30;15.30;99.90
52543;DHT22;38449;52.696;6.186;2022-07-23T01:43:56;15.20;99.90
52543;DHT22;38449;52.696;6.186;2022-07-23T01:46:22;15.30;99.90
52543;DHT22;38449;52.696;6.186;2022-07-23T01:48:48;15.20;99.90
52543;DHT22;38449;52.696;6.186;2022-07-23T01:51:14;15.20;99.90
52543;DHT22;38449;52.696;6.186;2022-07-23T01:53:40;15.30;99.90
52543;DHT22;38449;52.696;6.186;2022-07-23T01:56:06;15.20;99.90
52543;DHT22;38449;52.696;6.186;2022-07-23T01:58:32;15.20;99.90
52543;DHT22;38449;52.696;6.186;2022-07-23T02:00:58;15.20;99.90
52543;DHT22;38449;52.696;6.186;2022-07-23T02:03:24;15.20;99.90
52543;DHT22;38449;52.696;6.186;2022-07-23T02:05:50;15.20;99.90
52543;DHT22;38449;52.696;6.186;2022-07-23T02:08:17;15.20;99.90
52543;DHT22;38449;52.696;6.186;2022-07-23T02:10:43;15.30;99.90
52543;DHT22;38449;52.696;6.186;2022-07-23T02:13:08;15.30;99.90
52543;DHT22;38449;52.696;6.186;2022-07-23T02:15:34;15.30;99.90
52543;DHT22;38449;52.696;6.186;2022-07-23T02:18:00;15.30;99.90
52543;DHT22;38449;52.696;6.186;2022-07-23T02:20:26;15.30;99.90
52543;DHT22;38449;52.696;6.186;2022-07-23T02:22:52;15.30;99.90
52543;DHT22;38449;52.696;6.186;2022-07-23T02:25:18;15.30;99.90
52543;DHT22;38449;52.696;6.186;2022-07-23T02:27:43;15.30;99.90
52543;DHT22;38449;52.696;6.186;2022-07-23T02:30:09;15.30;99.90
52543;DHT22;38449;52.696;6.186;2022-07-23T02:32:36;15.20;99.90
52543;DHT22;38449;52.696;6.186;2022-07-23T02:35:02;15.20;99.90
52543;DHT22;38449;52.696;6.186;2022-07-23T02:37:28;15.10;99.90
52543;DHT22;38449;52.696;6.186;2022-07-23T02:39:54;15.10;99.90
52543;DHT22;38449;52.696;6.186;2022-07-23T02:42:19;15.00;99.90
52543;DHT22;38449;52.696;6.186;2022-07-23T02:44:45;15.00;99.90
52543;DHT22;38449;52.696;6.186;2022-07-23T02:47:11;15.00;99.90
52543;DHT22;38449;52.696;6.186;2022-07-23T02:49:37;15.00;99.90
52543;DHT22;38449;52.696;6.186;2022-07-23T02:52:03;14.90;99.90
52543;DHT22;38449;52.696;6.186;2022-07-23T02:54:29;14.90;99.90
52543;DHT22;38449;52.696;6.186;2022-07-23T02:56:54;14.80;99.90
52543;DHT22;38449;52.696;6.186;2022-07-23T02:59:20;14.80;99.90
52543;DHT22;38449;52.696;6.186;2022-07-23T03:01:46;14.70;99.90
52543;DHT22;38449;52.696;6.186;2022-07-23T03:04:12;14.80;99.90
52543;DHT22;38449;52.696;6.186;2022-07-23T03:06:38;14.70;99.90
52543;DHT22;38449;52.696;6.186;2022-07-23T03:09:05;14.60;99.90
52543;DHT22;38449;52.696;6.186;2022-07-23T03:11:30;14.70;99.90
52543;DHT22;38449;52.696;6.186;2022-07-23T03:13:56;14.60;99.90
52543;DHT22;38449;52.696;6.186;2022-07-23T03:16:22;14.60;99.90
52543;DHT22;38449;52.696;6.186;2022-07-23T03:18:48;14.60;99.90
52543;DHT22;38449;52.696;6.186;2022-07-23T03:21:14;14.50;99.90
52543;DHT22;38449;52.696;6.186;2022-07-23T03:23:40;14.50;99.90
52543;DHT22;38449;52.696;6.186;2022-07-23T03:26:06;14.50;99.90
52543;DHT22;38449;52.696;6.186;2022-07-23T03:28:31;14.50;99.90
52543;DHT22;38449;52.696;6.186;2022-07-23T03:30:57;14.50;99.90
52543;DHT22;38449;52.696;6.186;2022-07-23T03:33:23;14.50;99.90
52543;DHT22;38449;52.696;6.186;2022-07-23T03:35:49;14.40;99.90
52543;DHT22;38449;52.696;6.186;2022-07-23T03:38:15;14.50;99.90
52543;DHT22;38449;52.696;6.186;2022-07-23T03:40:41;14.50;99.90
52543;DHT22;38449;52.696;6.186;2022-07-23T03:43:07;14.50;99.90
52543;DHT22;38449;52.696;6.186;2022-07-23T03:45:33;14.40;99.90
52543;DHT22;38449;52.696;6.186;2022-07-23T03:47:58;14.50;99.90
52543;DHT22;38449;52.696;6.186;2022-07-23T03:50:24;14.40;99.90
52543;DHT22;38449;52.696;6.186;2022-07-23T03:52:51;14.30;99.90
52543;DHT22;38449;52.696;6.186;2022-07-23T03:55:17;14.40;99.90
52543;DHT22;38449;52.696;6.186;2022-07-23T03:57:43;14.30;99.90
52543;DHT22;38449;52.696;6.186;2022-07-23T04:00:09;14.30;99.90
52543;DHT22;38449;52.696;6.186;2022-07-23T04:02:38;14.30;99.90
52543;DHT22;38449;52.696;6.186;2022-07-23T04:05:04;14.30;99.90
52543;DHT22;38449;52.696;6.186;2022-07-23T04:07:30;14.20;99.90
52543;DHT22;38449;52.696;6.186;2022-07-23T04:09:56;14.20;99.90
52543;DHT22;38449;52.696;6.186;2022-07-23T04:12:21;14.20;99.90
52543;DHT22;38449;52.696;6.186;2022-07-23T04:14:47;14.20;99.90
52543;DHT22;38449;52.696;6.186;2022-07-23T04:17:12;14.20;99.90
52543;DHT22;38449;52.696;6.186;2022-07-23T04:19:38;14.20;99.90
52543;DHT22;38449;52.696;6.186;2022-07-23T04:22:09;14.20;99.90
52543;DHT22;38449;52.696;6.186;2022-07-23T04:24:35;14.20;99.90
52543;DHT22;38449;52.696;6.186;2022-07-23T04:27:03;14.20;99.90
52543;DHT22;38449;52.696;6.186;2022-07-23T04:29:29;14.30;99.90
52543;DHT22;38449;52.696;6.186;2022-07-23T04:31:55;14.30;99.90
52543;DHT22;38449;52.696;6.186;2022-07-23T04:34:20;14.30;99.90
52543;DHT22;38449;52.696;6.186;2022-07-23T04:36:47;14.40;99.90
52543;DHT22;38449;52.696;6.186;2022-07-23T04:39:13;14.40;99.90
52543;DHT22;38449;52.696;6.186;2022-07-23T04:41:38;14.40;99.90
52543;DHT22;38449;52.696;6.186;2022-07-23T04:44:04;14.50;99.90
52543;DHT22;38449;52.696;6.186;2022-07-23T04:46:30;14.50;99.90
52543;DHT22;38449;52.696;6.186;2022-07-23T04:48:56;14.60;99.90
52543;DHT22;38449;52.696;6.186;2022-07-23T04:51:21;14.60;99.90
52543;DHT22;38449;52.696;6.186;2022-07-23T04:53:47;14.70;99.90
52543;DHT22;38449;52.696;6.186;2022-07-23T04:56:13;14.90;99.90
52543;DHT22;38449;52.696;6.186;2022-07-23T04:58:38;15.40;99.90
52543;DHT22;38449;52.696;6.186;2022-07-23T05:01:04;15.90;99.90
52543;DHT22;38449;52.696;6.186;2022-07-23T05:03:30;16.50;99.90
52543;DHT22;38449;52.696;6.186;2022-07-23T05:05:55;17.30;99.90
52543;DHT22;38449;52.696;6.186;2022-07-23T05:08:21;17.90;99.90
52543;DHT22;38449;52.696;6.186;2022-07-23T05:10:47;18.60;99.90
52543;DHT22;38449;52.696;6.186;2022-07-23T05:13:15;19.30;99.90
52543;DHT22;38449;52.696;6.186;2022-07-23T05:15:41;19.70;99.90
52543;DHT22;38449;52.696;6.186;2022-07-23T05:18:07;20.10;99.90
52543;DHT22;38449;52.696;6.186;2022-07-23T05:20:33;20.70;99.90
52543;DHT22;38449;52.696;6.186;2022-07-23T05:22:58;21.10;99.90
52543;DHT22;38449;52.696;6.186;2022-07-23T05:25:24;21.60;99.90
52543;DHT22;38449;52.696;6.186;2022-07-23T05:27:50;21.90;99.90
52543;DHT22;38449;52.696;6.186;2022-07-23T05:30:15;22.30;99.90
52543;DHT22;38449;52.696;6.186;2022-07-23T05:32:41;22.60;99.90
52543;DHT22;38449;52.696;6.186;2022-07-23T05:35:07;22.80;99.90
52543;DHT22;38449;52.696;6.186;2022-07-23T05:37:33;23.20;99.90
52543;DHT22;38449;52.696;6.186;2022-07-23T05:40:07;23.40;99.90
52543;DHT22;38449;52.696;6.186;2022-07-23T05:42:40;23.50;99.90
52543;DHT22;38449;52.696;6.186;2022-07-23T05:45:06;23.60;99.90
52543;DHT22;38449;52.696;6.186;2022-07-23T05:47:43;23.40;99.90
52543;DHT22;38449;52.696;6.186;2022-07-23T05:50:10;23.60;99.90
52543;DHT22;38449;52.696;6.186;2022-07-23T05:52:35;23.30;99.90
52543;DHT22;38449;52.696;6.186;2022-07-23T05:55:01;22.90;99.90
52543;DHT22;38449;52.696;6.186;2022-07-23T05:57:27;22.80;99.90
52543;DHT22;38449;52.696;6.186;2022-07-23T05:59:52;22.90;99.90
52543;DHT22;38449;52.696;6.186;2022-07-23T06:02:18;23.10;99.90
52543;DHT22;38449;52.696;6.186;2022-07-23T06:04:43;23.20;99.90
52543;DHT22;38449;52.696;6.186;2022-07-23T06:07:09;23.00;99.90
52543;DHT22;38449;52.696;6.186;2022-07-23T06:09:35;23.00;99.90
52543;DHT22;38449;52.696;6.186;2022-07-23T06:12:00;23.20;99.90
52543;DHT22;38449;52.696;6.186;2022-07-23T06:14:26;23.40;99.90
52543;DHT22;38449;52.696;6.186;2022-07-23T06:16:52;23.80;99.90
52543;DHT22;38449;52.696;6.186;2022-07-23T06:19:17;24.00;99.90
52543;DHT22;38449;52.696;6.186;2022-07-23T06:21:43;24.20;99.90
52543;DHT22;38449;52.696;6.186;2022-07-23T06:24:09;24.20;99.90
52543;DHT22;38449;52.696;6.186;2022-07-23T06:26:34;24.40;99.90
52543;DHT22;38449;52.696;6.186;2022-07-23T06:29:00;24.70;99.70
52543;DHT22;38449;52.696;6.186;2022-07-23T06:31:26;24.80;99.10
52543;DHT22;38449;52.696;6.186;2022-07-23T06:33:51;24.60;98.80
52543;DHT22;38449;52.696;6.186;2022-07-23T06:36:17;24.80;98.60
52543;DHT22;38449;52.696;6.186;2022-07-23T06:38:43;25.10;98.30
52543;DHT22;38449;52.696;6.186;2022-07-23T06:41:09;24.80;98.00
52543;DHT22;38449;52.696;6.186;2022-07-23T06:43:34;24.70;98.10
52543;DHT22;38449;52.696;6.186;2022-07-23T06:46:00;24.80;98.20
52543;DHT22;38449;52.696;6.186;2022-07-23T06:48:26;25.10;98.10
52543;DHT22;38449;52.696;6.186;2022-07-23T06:50:51;25.50;97.90
52543;DHT22;38449;52.696;6.186;2022-07-23T06:53:18;25.10;97.70
52543;DHT22;38449;52.696;6.186;2022-07-23T06:55:43;24.80;97.70
52543;DHT22;38449;52.696;6.186;2022-07-23T06:58:09;24.50;97.80
52543;DHT22;38449;52.696;6.186;2022-07-23T07:00:35;24.40;97.90
52543;DHT22;38449;52.696;6.186;2022-07-23T07:03:01;24.50;97.80
52543;DHT22;38449;52.696;6.186;2022-07-23T07:05:27;24.60;97.50
52543;DHT22;38449;52.696;6.186;2022-07-23T07:07:56;24.10;97.60
52543;DHT22;38449;52.696;6.186;2022-07-23T07:10:22;24.10;97.70
52543;DHT22;38449;52.696;6.186;2022-07-23T07:12:48;23.80;98.30
52543;DHT22;38449;52.696;6.186;2022-07-23T07:15:14;23.60;98.70
52543;DHT22;38449;52.696;6.186;2022-07-23T07:17:40;23.20;99.20
52543;DHT22;38449;52.696;6.186;2022-07-23T07:20:08;22.90;99.60
52543;DHT22;38449;52.696;6.186;2022-07-23T07:22:34;22.70;99.90
52543;DHT22;38449;52.696;6.186;2022-07-23T07:24:59;22.60;99.90
52543;DHT22;38449;52.696;6.186;2022-07-23T07:27:25;22.50;99.90
52543;DHT22;38449;52.696;6.186;2022-07-23T07:29:51;22.10;99.90
52543;DHT22;38449;52.696;6.186;2022-07-23T07:32:16;21.80;99.90
52543;DHT22;38449;52.696;6.186;2022-07-23T07:34:42;21.70;99.90
52543;DHT22;38449;52.696;6.186;2022-07-23T07:37:11;21.50;99.90
52543;DHT22;38449;52.696;6.186;2022-07-23T07:39:36;21.40;99.90
52543;DHT22;38449;52.696;6.186;2022-07-23T07:42:02;21.30;99.90
52543;DHT22;38449;52.696;6.186;2022-07-23T07:44:28;21.20;99.90
52543;DHT22;38449;52.696;6.186;2022-07-23T07:46:53;21.40;99.90
52543;DHT22;38449;52.696;6.186;2022-07-23T07:49:19;21.40;99.90
52543;DHT22;38449;52.696;6.186;2022-07-23T07:51:45;21.40;99.90
52543;DHT22;38449;52.696;6.186;2022-07-23T07:54:12;21.30;99.90
52543;DHT22;38449;52.696;6.186;2022-07-23T07:56:37;21.10;99.90
52543;DHT22;38449;52.696;6.186;2022-07-23T07:59:03;21.00;99.90
52543;DHT22;38449;52.696;6.186;2022-07-23T08:01:29;21.00;99.90
52543;DHT22;38449;52.696;6.186;2022-07-23T08:03:54;20.90;99.90
52543;DHT22;38449;52.696;6.186;2022-07-23T08:06:20;20.50;99.90
52543;DHT22;38449;52.696;6.186;2022-07-23T08:08:46;20.40;99.90
52543;DHT22;38449;52.696;6.186;2022-07-23T08:11:11;20.50;99.90
52543;DHT22;38449;52.696;6.186;2022-07-23T08:13:37;20.70;99.90
52543;DHT22;38449;52.696;6.186;2022-07-23T08:16:03;21.00;99.90
52543;DHT22;38449;52.696;6.186;2022-07-23T08:18:29;21.40;99.90
52543;DHT22;38449;52.696;6.186;2022-07-23T08:20:54;21.40;99.90
52543;DHT22;38449;52.696;6.186;2022-07-23T08:23:20;21.10;99.90
52543;DHT22;38449;52.696;6.186;2022-07-23T08:25:46;20.80;99.90
52543;DHT22;38449;52.696;6.186;2022-07-23T08:28:15;20.50;99.90
52543;DHT22;38449;52.696;6.186;2022-07-23T08:30:43;20.60;99.90
52543;DHT22;38449;52.696;6.186;2022-07-23T08:33:14;21.00;99.90
52543;DHT22;38449;52.696;6.186;2022-07-23T08:35:43;21.20;99.90
52543;DHT22;38449;52.696;6.186;2022-07-23T08:38:12;21.10;99.90
52543;DHT22;38449;52.696;6.186;2022-07-23T08:40:43;21.10;99.90
52543;DHT22;38449;52.696;6.186;2022-07-23T08:43:13;21.00;99.90
52543;DHT22;38449;52.696;6.186;2022-07-23T08:45:42;20.80;99.90
52543;DHT22;38449;52.696;6.186;2022-07-23T08:48:11;20.80;99.90
52543;DHT22;38449;52.696;6.186;2022-07-23T08:50:37;20.70;99.90
52543;DHT22;38449;52.696;6.186;2022-07-23T08:53:06;20.70;99.90
52543;DHT22;38449;52.696;6.186;2022-07-23T08:55:32;20.60;99.90
52543;DHT22;38449;52.696;6.186;2022-07-23T08:57:57;20.90;99.90
52543;DHT22;38449;52.696;6.186;2022-07-23T09:00:23;21.20;99.90
52543;DHT22;38449;52.696;6.186;2022-07-23T09:02:50;21.20;99.90
52543;DHT22;38449;52.696;6.186;2022-07-23T09:05:17;21.00;99.90
52543;DHT22;38449;52.696;6.186;2022-07-23T09:08:05;20.80;99.90
52543;DHT22;38449;52.696;6.186;2022-07-23T09:16:00;20.90;99.90
52543;DHT22;38449;52.696;6.186;2022-07-23T09:18:42;21.10;99.90
52543;DHT22;38449;52.696;6.186;2022-07-23T09:21:27;21.40;99.90
52543;DHT22;38449;52.696;6.186;2022-07-23T09:24:04;21.60;99.90
52543;DHT22;38449;52.696;6.186;2022-07-23T09:34:21;21.60;99.10
52543;DHT22;38449;52.696;6.186;2022-07-23T09:36:49;21.60;99.50
52543;DHT22;38449;52.696;6.186;2022-07-23T09:39:29;21.70;99.40
52543;DHT22;38449;52.696;6.186;2022-07-23T09:41:55;22.10;98.70
52543;DHT22;38449;52.696;6.186;2022-07-23T09:44:21;22.10;98.90
52543;DHT22;38449;52.696;6.186;2022-07-23T09:46:49;21.90;98.60
52543;DHT22;38449;52.696;6.186;2022-07-23T09:49:21;21.90;98.90
52543;DHT22;38449;52.696;6.186;2022-07-23T09:54:23;21.50;99.30
52543;DHT22;38449;52.696;6.186;2022-07-23T09:56:51;21.40;99.40
52543;DHT22;38449;52.696;6.186;2022-07-23T09:59:17;21.60;99.50
52543;DHT22;38449;52.696;6.186;2022-07-23T10:01:44;21.80;99.50
52543;DHT22;38449;52.696;6.186;2022-07-23T10:04:11;21.90;99.20
52543;DHT22;38449;52.696;6.186;2022-07-23T10:06:39;21.70;99.00
52543;DHT22;38449;52.696;6.186;2022-07-23T10:09:05;21.60;99.10
52543;DHT22;38449;52.696;6.186;2022-07-23T10:11:33;21.70;99.30
52543;DHT22;38449;52.696;6.186;2022-07-23T10:14:00;21.70;99.20
52543;DHT22;38449;52.696;6.186;2022-07-23T10:16:30;21.70;99.10
52543;DHT22;38449;52.696;6.186;2022-07-23T10:18:55;21.80;99.10
52543;DHT22;38449;52.696;6.186;2022-07-23T10:21:31;21.90;99.10
52543;DHT22;38449;52.696;6.186;2022-07-23T10:24:08;22.10;99.00
52543;DHT22;38449;52.696;6.186;2022-07-23T10:32:37;22.20;99.00
52543;DHT22;38449;52.696;6.186;2022-07-23T10:37:53;21.90;99.70
52543;DHT22;38449;52.696;6.186;2022-07-23T10:40:21;22.10;99.20
52543;DHT22;38449;52.696;6.186;2022-07-23T10:42:52;22.10;99.20
52543;DHT22;38449;52.696;6.186;2022-07-23T10:45:34;22.30;99.00
52543;DHT22;38449;52.696;6.186;2022-07-23T10:48:21;22.40;98.50
52543;DHT22;38449;52.696;6.186;2022-07-23T10:51:06;22.50;98.30
52543;DHT22;38449;52.696;6.186;2022-07-23T10:56:17;22.30;98.90
52543;DHT22;38449;52.696;6.186;2022-07-23T10:58:48;22.20;99.00
52543;DHT22;38449;52.696;6.186;2022-07-23T11:01:36;22.30;98.80
52543;DHT22;38449;52.696;6.186;2022-07-23T11:04:03;22.60;98.90
52543;DHT22;38449;52.696;6.186;2022-07-23T11:09:30;23.00;98.90
52543;DHT22;38449;52.696;6.186;2022-07-23T11:15:05;23.20;98.10
52543;DHT22;38449;52.696;6.186;2022-07-23T11:17:33;23.20;98.10
52543;DHT22;38449;52.696;6.186;2022-07-23T11:22:51;23.40;98.30
52543;DHT22;38449;52.696;6.186;2022-07-23T11:27:53;23.30;98.00
52543;DHT22;38449;52.696;6.186;2022-07-23T11:32:54;22.90;98.60
52543;DHT22;38449;52.696;6.186;2022-07-23T11:35:44;22.70;98.70
52543;DHT22;38449;52.696;6.186;2022-07-23T11:38:17;22.70;98.90
52543;DHT22;38449;52.696;6.186;2022-07-23T11:40:45;22.80;98.90
52543;DHT22;38449;52.696;6.186;2022-07-23T11:43:11;22.90;98.70
52543;DHT22;38449;52.696;6.186;2022-07-23T11:45:42;23.00;98.50
52543;DHT22;38449;52.696;6.186;2022-07-23T11:48:15;23.10;98.60
52543;DHT22;38449;52.696;6.186;2022-07-23T11:50:41;23.20;98.50
52543;DHT22;38449;52.696;6.186;2022-07-23T11:53:07;23.20;98.60
52543;DHT22;38449;52.696;6.186;2022-07-23T11:55:33;23.20;98.40
52543;DHT22;38449;52.696;6.186;2022-07-23T11:57:58;23.40;98.40
52543;DHT22;38449;52.696;6.186;2022-07-23T12:00:27;23.50;98.20
52543;DHT22;38449;52.696;6.186;2022-07-23T12:02:57;23.50;98.10
52543;DHT22;38449;52.696;6.186;2022-07-23T12:05:32;23.60;98.10
52543;DHT22;38449;52.696;6.186;2022-07-23T12:07:59;23.60;98.00
52543;DHT22;38449;52.696;6.186;2022-07-23T12:10:27;23.60;98.30
52543;DHT22;38449;52.696;6.186;2022-07-23T12:12:58;23.70;98.30
52543;DHT22;38449;52.696;6.186;2022-07-23T12:15:33;23.70;98.10
52543;DHT22;38449;52.696;6.186;2022-07-23T12:18:00;23.50;98.20
52543;DHT22;38449;52.696;6.186;2022-07-23T12:20:32;23.30;98.20
52543;DHT22;38449;52.696;6.186;2022-07-23T12:23:01;23.50;98.40
52543;DHT22;38449;52.696;6.186;2022-07-23T12:25:33;23.70;98.40
52543;DHT22;38449;52.696;6.186;2022-07-23T12:28:11;23.80;98.20
52543;DHT22;38449;52.696;6.186;2022-07-23T12:30:41;23.80;98.10
52543;DHT22;38449;52.696;6.186;2022-07-23T12:33:08;23.80;98.30
52543;DHT22;38449;52.696;6.186;2022-07-23T12:35:43;23.60;98.60
52543;DHT22;38449;52.696;6.186;2022-07-23T12:38:12;23.60;98.40
52543;DHT22;38449;52.696;6.186;2022-07-23T12:40:46;23.40;98.80
52543;DHT22;38449;52.696;6.186;2022-07-23T12:43:23;23.30;98.80
52543;DHT22;38449;52.696;6.186;2022-07-23T12:45:55;23.30;98.70
52543;DHT22;38449;52.696;6.186;2022-07-23T12:48:38;23.30;98.80
52543;DHT22;38449;52.696;6.186;2022-07-23T12:51:23;23.40;99.10
52543;DHT22;38449;52.696;6.186;2022-07-23T12:53:55;23.40;99.20
52543;DHT22;38449;52.696;6.186;2022-07-23T12:56:27;23.70;99.10
52543;DHT22;38449;52.696;6.186;2022-07-23T12:58:56;23.90;98.70
52543;DHT22;38449;52.696;6.186;2022-07-23T13:01:30;24.10;98.50
52543;DHT22;38449;52.696;6.186;2022-07-23T13:04:12;24.10;98.40
52543;DHT22;38449;52.696;6.186;2022-07-23T13:06:40;24.30;98.60
52543;DHT22;38449;52.696;6.186;2022-07-23T13:09:09;24.40;98.30
52543;DHT22;38449;52.696;6.186;2022-07-23T13:11:34;24.50;98.10
52543;DHT22;38449;52.696;6.186;2022-07-23T13:14:00;24.60;98.20
52543;DHT22;38449;52.696;6.186;2022-07-23T13:16:30;24.90;98.40
52543;DHT22;38449;52.696;6.186;2022-07-23T13:18:56;24.80;97.90
52543;DHT22;38449;52.696;6.186;2022-07-23T13:21:22;24.50;98.00
52543;DHT22;38449;52.696;6.186;2022-07-23T13:23:48;24.20;98.10
52543;DHT22;38449;52.696;6.186;2022-07-23T13:26:15;24.00;98.30
52543;DHT22;38449;52.696;6.186;2022-07-23T13:28:41;23.80;98.30
52543;DHT22;38449;52.696;6.186;2022-07-23T13:31:07;23.70;98.50
52543;DHT22;38449;52.696;6.186;2022-07-23T13:33:33;23.60;98.60
52543;DHT22;38449;52.696;6.186;2022-07-23T13:35:59;23.70;98.80
52543;DHT22;38449;52.696;6.186;2022-07-23T13:38:25;23.70;99.00
52543;DHT22;38449;52.696;6.186;2022-07-23T13:40:51;23.60;98.90
52543;DHT22;38449;52.696;6.186;2022-07-23T13:43:20;23.60;99.20
52543;DHT22;38449;52.696;6.186;2022-07-23T13:45:46;23.70;99.00
52543;DHT22;38449;52.696;6.186;2022-07-23T13:48:12;23.70;99.10
52543;DHT22;38449;52.696;6.186;2022-07-23T13:50:39;23.60;99.00
52543;DHT22;38449;52.696;6.186;2022-07-23T13:53:10;23.70;99.20
52543;DHT22;38449;52.696;6.186;2022-07-23T13:55:38;23.70;98.70
52543;DHT22;38449;52.696;6.186;2022-07-23T13:58:04;23.70;99.10
52543;DHT22;38449;52.696;6.186;2022-07-23T14:00:31;23.70;98.80
52543;DHT22;38449;52.696;6.186;2022-07-23T14:02:57;23.80;98.90
52543;DHT22;38449;52.696;6.186;2022-07-23T14:05:23;23.90;99.00
52543;DHT22;38449;52.696;6.186;2022-07-23T14:07:49;24.10;98.90
52543;DHT22;38449;52.696;6.186;2022-07-23T14:10:18;24.30;98.90
52543;DHT22;38449;52.696;6.186;2022-07-23T14:12:46;24.30;98.90
52543;DHT22;38449;52.696;6.186;2022-07-23T14:15:12;24.20;98.80
52543;DHT22;38449;52.696;6.186;2022-07-23T14:17:39;24.30;98.70
52543;DHT22;38449;52.696;6.186;2022-07-23T14:20:07;24.50;98.40
52543;DHT22;38449;52.696;6.186;2022-07-23T14:22:33;24.60;98.50
52543;DHT22;38449;52.696;6.186;2022-07-23T14:24:59;24.50;98.40
52543;DHT22;38449;52.696;6.186;2022-07-23T14:27:26;24.40;98.40
52543;DHT22;38449;52.696;6.186;2022-07-23T14:29:53;24.40;98.70
52543;DHT22;38449;52.696;6.186;2022-07-23T14:32:19;24.40;98.90
52543;DHT22;38449;52.696;6.186;2022-07-23T14:34:45;24.40;98.80
52543;DHT22;38449;52.696;6.186;2022-07-23T14:37:11;24.60;98.80
52543;DHT22;38449;52.696;6.186;2022-07-23T14:39:38;24.80;98.60
52543;DHT22;38449;52.696;6.186;2022-07-23T14:42:04;24.70;98.40
52543;DHT22;38449;52.696;6.186;2022-07-23T14:44:30;24.80;98.50
52543;DHT22;38449;52.696;6.186;2022-07-23T14:46:56;24.90;98.50
52543;DHT22;38449;52.696;6.186;2022-07-23T14:49:22;25.20;98.00
52543;DHT22;38449;52.696;6.186;2022-07-23T14:51:47;25.30;98.10
52543;DHT22;38449;52.696;6.186;2022-07-23T14:54:13;25.30;98.00
52543;DHT22;38449;52.696;6.186;2022-07-23T14:56:40;25.40;98.00
52543;DHT22;38449;52.696;6.186;2022-07-23T14:59:06;25.30;98.10
52543;DHT22;38449;52.696;6.186;2022-07-23T15:01:33;25.20;98.00
52543;DHT22;38449;52.696;6.186;2022-07-23T15:03:58;25.00;98.20
52543;DHT22;38449;52.696;6.186;2022-07-23T15:06:24;24.80;98.30
52543;DHT22;38449;52.696;6.186;2022-07-23T15:08:50;24.70;98.80
52543;DHT22;38449;52.696;6.186;2022-07-23T15:11:16;24.60;98.70
52543;DHT22;38449;52.696;6.186;2022-07-23T15:13:42;24.50;98.90
52543;DHT22;38449;52.696;6.186;2022-07-23T15:16:08;24.50;98.80
52543;DHT22;38449;52.696;6.186;2022-07-23T15:18:34;24.60;98.70
52543;DHT22;38449;52.696;6.186;2022-07-23T15:21:00;24.40;98.90
52543;DHT22;38449;52.696;6.186;2022-07-23T15:23:27;24.30;99.00
52543;DHT22;38449;52.696;6.186;2022-07-23T15:25:54;24.20;99.20
52543;DHT22;38449;52.696;6.186;2022-07-23T15:28:20;24.30;99.20
52543;DHT22;38449;52.696;6.186;2022-07-23T15:30:45;24.30;99.20
52543;DHT22;38449;52.696;6.186;2022-07-23T15:33:11;24.40;99.20
52543;DHT22;38449;52.696;6.186;2022-07-23T15:35:37;24.50;99.20
52543;DHT22;38449;52.696;6.186;2022-07-23T15:38:03;24.60;99.10
52543;DHT22;38449;52.696;6.186;2022-07-23T15:40:28;24.80;98.90
52543;DHT22;38449;52.696;6.186;2022-07-23T15:42:54;25.00;98.80
52543;DHT22;38449;52.696;6.186;2022-07-23T15:45:20;24.90;98.60
52543;DHT22;38449;52.696;6.186;2022-07-23T15:47:47;25.00;98.50
52543;DHT22;38449;52.696;6.186;2022-07-23T15:50:14;25.10;98.30
52543;DHT22;38449;52.696;6.186;2022-07-23T15:52:39;25.10;98.30
52543;DHT22;38449;52.696;6.186;2022-07-23T15:55:05;24.90;98.30
52543;DHT22;38449;52.696;6.186;2022-07-23T15:57:31;24.80;98.60
52543;DHT22;38449;52.696;6.186;2022-07-23T15:59:57;24.80;98.80
52543;DHT22;38449;52.696;6.186;2022-07-23T16:02:23;24.90;98.80
52543;DHT22;38449;52.696;6.186;2022-07-23T16:04:49;25.00;98.70
52543;DHT22;38449;52.696;6.186;2022-07-23T16:07:16;25.20;98.60
52543;DHT22;38449;52.696;6.186;2022-07-23T16:09:43;25.00;98.40
52543;DHT22;38449;52.696;6.186;2022-07-23T16:12:09;24.90;98.50